Time;durP1;ratioP1;P1;durP2;ratioP2;P2;SDS_P1;SDS_P2;PMS_P1;PMS_P2;Temp;Humidity;BMP_temperature;BMP_pressure;BME280_temperature;BME280_humidity;BME280_pressure;Samples;Min_cycle;Max_cycle;Signal;HPM_P1;HPM_P2
2022/02/23 00:00:35;;;;;;;6.25;1.17;;;6.10;95.10;;;;;;2051224;28;20031;-89
2022/02/23 00:01:36;;;;;;;5.70;1.27;;;6.10;95.10;;;;;;2053196;28;20439;-88
2022/02/23 00:02:36;;;;;;;5.85;1.05;;;6.10;95.10;;;;;;2069985;28;20038;-88
2022/02/23 00:03:37;;;;;;;8.48;1.20;;;6.10;95.10;;;;;;2057174;28;20041;-88
2022/02/23 00:04:37;;;;;;;7.18;1.10;;;6.10;95.10;;;;;;2058546;28;20505;-88
2022/02/23 00:05:38;;;;;;;7.47;1.33;;;6.10;95.10;;;;;;2059735;28;20066;-88
2022/02/23 00:06:39;;;;;;;7.90;1.33;;;6.10;95.10;;;;;;2081111;28;20090;-88
2022/02/23 00:07:40;;;;;;;7.38;1.38;;;6.10;95.10;;;;;;2073649;28;20048;-88
2022/02/23 00:08:41;;;;;;;4.72;1.20;;;6.10;95.10;;;;;;2047622;28;20554;-88
2022/02/23 00:09:41;;;;;;;6.53;0.95;;;6.10;95.10;;;;;;2054646;28;20054;-88
2022/02/23 00:10:42;;;;;;;7.32;1.00;;;6.10;95.10;;;;;;2058916;28;20131;-88
2022/02/23 00:11:43;;;;;;;6.30;1.40;;;6.10;95.10;;;;;;2064025;28;20062;-89
2022/02/23 00:12:43;;;;;;;5.15;1.20;;;6.10;95.10;;;;;;2073762;28;20054;-88
2022/02/23 00:13:44;;;;;;;8.73;1.40;;;6.00;95.10;;;;;;2060063;28;20046;-88
2022/02/23 00:14:45;;;;;;;7.15;1.20;;;6.10;95.10;;;;;;2094460;28;20037;-89
2022/02/23 00:15:45;;;;;;;4.90;1.27;;;6.00;95.10;;;;;;2089468;28;20033;-88
2022/02/23 00:16:46;;;;;;;5.07;1.00;;;6.00;95.10;;;;;;2063080;28;20045;-88
2022/02/23 00:17:46;;;;;;;6.60;1.20;;;6.00;95.10;;;;;;2064767;28;20054;-89
2022/02/23 00:18:47;;;;;;;5.07;1.10;;;6.00;95.40;;;;;;2077522;28;20411;-88
2022/02/23 00:19:48;;;;;;;5.65;1.27;;;6.00;95.10;;;;;;2061398;28;20039;-88
2022/02/23 00:20:50;;;;;;;8.60;1.42;;;6.00;95.10;;;;;;2098002;28;20036;-88
2022/02/23 00:21:50;;;;;;;7.25;1.58;;;6.00;95.10;;;;;;2087731;28;20065;-88
2022/02/23 00:22:51;;;;;;;4.53;1.00;;;6.00;95.10;;;;;;2076669;28;20506;-88
2022/02/23 00:23:51;;;;;;;5.90;1.20;;;6.00;95.10;;;;;;2069009;28;20122;-88
2022/02/23 00:24:52;;;;;;;7.85;1.58;;;6.00;95.10;;;;;;2059699;28;20031;-88
2022/02/23 00:25:53;;;;;;;6.97;1.13;;;6.00;95.10;;;;;;2060624;28;20441;-88
2022/02/23 00:26:54;;;;;;;5.65;1.23;;;6.00;95.10;;;;;;2061256;28;20038;-88
2022/02/23 00:27:55;;;;;;;6.32;0.93;;;6.00;95.10;;;;;;2062620;28;20042;-88
2022/02/23 00:28:55;;;;;;;5.70;1.30;;;5.90;95.10;;;;;;2079215;28;20032;-88
2022/02/23 00:29:56;;;;;;;6.60;1.20;;;5.90;95.10;;;;;;2078102;28;20559;-88
2022/02/23 00:30:56;;;;;;;6.55;0.90;;;5.90;95.10;;;;;;2086964;28;20048;-88
2022/02/23 00:31:57;;;;;;;8.73;1.52;;;5.90;95.10;;;;;;2071827;28;20123;-88
2022/02/23 00:32:58;;;;;;;6.22;1.10;;;5.90;95.10;;;;;;2050945;28;20050;-88
2022/02/23 00:33:59;;;;;;;7.25;1.40;;;5.90;95.10;;;;;;2074377;28;20287;-88
2022/02/23 00:34:59;;;;;;;6.45;0.98;;;5.90;95.10;;;;;;2054077;28;20050;-88
2022/02/23 00:36:00;;;;;;;7.85;1.23;;;5.90;95.10;;;;;;2069851;28;20388;-88
2022/02/23 00:37:01;;;;;;;6.15;1.33;;;5.90;95.10;;;;;;2090626;28;20570;-86
2022/02/23 00:38:02;;;;;;;6.75;1.13;;;5.90;95.10;;;;;;2053247;28;20040;-88
2022/02/23 00:39:03;;;;;;;7.47;1.30;;;5.90;95.10;;;;;;2045413;28;20036;-88
2022/02/23 00:40:04;;;;;;;6.22;1.10;;;5.90;95.10;;;;;;2060159;28;20117;-88
2022/02/23 00:41:05;;;;;;;8.40;1.20;;;5.80;95.00;;;;;;2077181;28;20031;-88
2022/02/23 00:42:06;;;;;;;5.18;1.10;;;5.80;95.00;;;;;;2056054;28;20080;-87
2022/02/23 00:43:06;;;;;;;5.63;1.25;;;5.80;95.00;;;;;;2052245;28;20032;-88
2022/02/23 00:44:07;;;;;;;8.13;1.23;;;5.80;95.00;;;;;;2056765;28;20047;-88
2022/02/23 00:45:08;;;;;;;9.18;1.40;;;5.80;95.30;;;;;;2066595;28;20134;-88
2022/02/23 00:46:09;;;;;;;5.85;1.30;;;5.80;95.00;;;;;;2053226;28;20540;-88
2022/02/23 00:47:12;;;;;;;5.53;1.13;;;5.80;95.00;;;;;;2069930;28;20063;-88
2022/02/23 00:48:13;;;;;;;4.32;0.90;;;5.80;95.00;;;;;;2064965;28;20088;-88
2022/02/23 00:49:14;;;;;;;6.15;1.10;;;5.80;95.00;;;;;;2075708;28;20522;-87
2022/02/23 00:50:14;;;;;;;5.03;1.17;;;5.80;95.00;;;;;;2088556;28;20033;-88
2022/02/23 00:51:15;;;;;;;4.70;1.10;;;5.80;95.00;;;;;;2078580;28;20452;-88
2022/02/23 00:52:16;;;;;;;5.28;1.15;;;5.80;95.00;;;;;;2065811;28;20387;-87
2022/02/23 00:53:16;;;;;;;5.85;1.00;;;5.80;95.00;;;;;;2082594;28;20031;-88
2022/02/23 00:54:18;;;;;;;5.95;1.10;;;5.80;95.00;;;;;;2082798;28;20067;-87
2022/02/23 00:55:18;;;;;;;8.27;1.30;;;5.80;95.00;;;;;;2081085;28;20028;-88
2022/02/23 00:56:19;;;;;;;6.28;1.15;;;5.80;95.00;;;;;;2057215;28;20420;-88
2022/02/23 00:57:20;;;;;;;5.68;1.20;;;5.80;95.00;;;;;;2063414;28;20061;-88
2022/02/23 00:58:20;;;;;;;7.00;1.17;;;5.80;95.10;;;;;;2067172;28;20125;-88
2022/02/23 00:59:21;;;;;;;6.38;1.20;;;5.80;95.00;;;;;;2083353;28;20088;-88
2022/02/23 01:00:22;;;;;;;6.45;1.15;;;5.80;95.30;;;;;;2090090;28;20037;-88
2022/02/23 01:01:22;;;;;;;6.05;1.08;;;5.80;95.30;;;;;;2089819;28;20060;-88
2022/02/23 01:02:26;;;;;;;7.50;1.17;;;5.70;95.00;;;;;;2088103;28;20144;-89
2022/02/23 01:03:27;;;;;;;5.97;1.00;;;5.70;95.00;;;;;;2062925;28;20049;-88
2022/02/23 01:04:30;;;;;;;6.40;1.08;;;5.70;95.00;;;;;;2066570;28;20081;-88
2022/02/23 01:05:31;;;;;;;6.22;1.48;;;5.70;95.00;;;;;;2074471;28;20037;-88
2022/02/23 01:06:32;;;;;;;5.72;1.10;;;5.80;95.00;;;;;;2046103;28;20071;-88
2022/02/23 01:07:32;;;;;;;5.60;1.02;;;5.80;95.00;;;;;;2089889;28;20041;-88
2022/02/23 01:08:33;;;;;;;6.72;1.27;;;5.70;95.00;;;;;;2090533;28;20064;-88
2022/02/23 01:09:34;;;;;;;7.70;1.42;;;5.70;95.00;;;;;;2085829;28;20057;-88
2022/02/23 01:10:35;;;;;;;8.20;1.40;;;5.70;95.00;;;;;;2083266;28;20028;-88
2022/02/23 01:11:37;;;;;;;4.38;0.85;;;5.70;95.00;;;;;;2056286;28;20468;-88
2022/02/23 01:12:37;;;;;;;6.35;1.25;;;5.70;95.00;;;;;;2072437;28;20084;-88
2022/02/23 01:13:38;;;;;;;7.03;0.95;;;5.70;95.00;;;;;;2062166;28;20047;-88
2022/02/23 01:14:39;;;;;;;6.95;1.33;;;5.70;95.00;;;;;;2055147;28;20035;-89
2022/02/23 01:15:40;;;;;;;9.07;1.30;;;5.70;95.00;;;;;;2072099;28;20130;-88
2022/02/23 01:16:40;;;;;;;6.10;1.42;;;5.70;95.00;;;;;;2077008;28;20032;-88
2022/02/23 01:17:41;;;;;;;6.03;1.50;;;5.70;95.00;;;;;;2075449;28;20070;-88
2022/02/23 01:18:42;;;;;;;5.90;1.02;;;5.70;95.00;;;;;;2052029;28;20605;-88
2022/02/23 01:19:42;;;;;;;6.35;1.35;;;5.70;95.00;;;;;;2042553;28;20090;-88
2022/02/23 01:20:43;;;;;;;6.43;1.20;;;5.70;95.00;;;;;;2080692;28;20044;-88
2022/02/23 01:21:44;;;;;;;5.13;1.45;;;5.70;95.00;;;;;;2066928;28;20134;-88
2022/02/23 01:22:44;;;;;;;4.30;1.08;;;5.70;95.00;;;;;;2077893;28;20485;-88
2022/02/23 01:23:45;;;;;;;5.20;0.88;;;5.70;95.00;;;;;;2097825;28;20027;-88
2022/02/23 01:24:45;;;;;;;7.18;1.08;;;5.70;95.00;;;;;;2086020;28;20053;-88
2022/02/23 01:25:46;;;;;;;5.90;1.40;;;5.70;95.30;;;;;;2065798;28;20045;-88
2022/02/23 01:26:47;;;;;;;5.40;1.10;;;5.70;95.00;;;;;;2068254;28;20123;-89
2022/02/23 01:27:47;;;;;;;7.07;1.35;;;5.60;95.30;;;;;;2091406;28;20040;-88
2022/02/23 01:28:48;;;;;;;6.00;1.10;;;5.60;95.00;;;;;;2068468;28;20408;-88
2022/02/23 01:29:49;;;;;;;5.35;1.08;;;5.60;95.00;;;;;;2068353;28;20492;-88
2022/02/23 01:30:50;;;;;;;6.35;1.05;;;5.60;95.00;;;;;;2057452;28;20133;-88
2022/02/23 01:31:50;;;;;;;5.10;1.13;;;5.60;95.00;;;;;;2045886;28;20040;-88
2022/02/23 01:32:51;;;;;;;5.78;1.38;;;5.60;95.10;;;;;;2071431;28;20041;-88
2022/02/23 01:33:52;;;;;;;4.72;1.17;;;5.60;95.10;;;;;;2058617;28;20039;-88
2022/02/23 01:34:52;;;;;;;5.10;1.10;;;5.60;95.10;;;;;;2060974;28;20038;-88
2022/02/23 01:35:54;;;;;;;3.35;1.00;;;5.60;95.10;;;;;;2068459;28;20185;-88
2022/02/23 01:36:54;;;;;;;4.45;1.10;;;5.50;95.10;;;;;;2068646;28;20425;-88
2022/02/23 01:37:55;;;;;;;3.47;0.90;;;5.60;95.10;;;;;;2068665;28;20045;-88
2022/02/23 01:38:56;;;;;;;5.63;1.00;;;5.50;95.10;;;;;;2085794;28;20127;-88
2022/02/23 01:39:56;;;;;;;8.40;1.08;;;5.50;95.10;;;;;;2072007;28;20034;-88
2022/02/23 01:40:57;;;;;;;6.72;1.38;;;5.50;95.10;;;;;;2066313;28;20420;-88
2022/02/23 01:41:58;;;;;;;7.43;1.35;;;5.50;95.10;;;;;;2060129;28;20515;-87
2022/02/23 01:42:58;;;;;;;6.07;1.15;;;5.50;95.10;;;;;;2078490;28;20035;-88
2022/02/23 01:43:59;;;;;;;6.95;1.40;;;5.50;95.10;;;;;;2065470;28;20037;-88
2022/02/23 01:45:00;;;;;;;9.13;1.45;;;5.50;95.10;;;;;;2064586;28;20042;-88
2022/02/23 01:46:00;;;;;;;10.48;1.35;;;5.50;95.10;;;;;;2080279;28;20024;-89
2022/02/23 01:47:01;;;;;;;8.25;1.23;;;5.50;95.10;;;;;;2082935;28;20429;-88
2022/02/23 01:48:03;;;;;;;5.50;1.20;;;5.50;95.10;;;;;;2052742;28;20425;-88
2022/02/23 01:49:03;;;;;;;9.98;1.33;;;5.50;95.10;;;;;;2062341;28;20046;-88
2022/02/23 01:50:06;;;;;;;7.32;1.35;;;5.50;95.00;;;;;;2062228;28;20050;-88
2022/02/23 01:51:07;;;;;;;6.00;1.10;;;5.50;95.00;;;;;;2068482;28;20087;-88
2022/02/23 01:52:08;;;;;;;5.93;1.15;;;5.50;95.00;;;;;;2068825;28;20066;-88
2022/02/23 01:53:09;;;;;;;6.68;1.20;;;5.50;95.00;;;;;;2055936;28;20039;-88
2022/02/23 01:54:09;;;;;;;5.75;1.50;;;5.50;95.00;;;;;;2065441;28;20038;-88
2022/02/23 01:55:12;;;;;;;5.00;1.05;;;5.50;95.00;;;;;;2058830;28;20035;-88
2022/02/23 01:56:12;;;;;;;4.45;1.02;;;5.50;95.00;;;;;;2093016;28;20037;-88
2022/02/23 01:57:13;;;;;;;5.68;1.40;;;5.50;95.00;;;;;;2097618;28;20067;-88
2022/02/23 01:58:14;;;;;;;5.45;1.20;;;5.50;95.00;;;;;;2064574;28;20069;-88
2022/02/23 01:59:14;;;;;;;5.97;1.00;;;5.50;95.00;;;;;;2066685;28;20493;-89
2022/02/23 02:00:16;;;;;;;5.72;1.08;;;5.40;95.00;;;;;;2064667;28;20039;-88
2022/02/23 02:01:17;;;;;;;5.03;1.20;;;5.50;95.00;;;;;;2085093;28;20044;-88
2022/02/23 02:02:20;;;;;;;6.72;1.00;;;5.40;95.00;;;;;;2076490;28;20100;-87
2022/02/23 02:03:21;;;;;;;4.72;1.13;;;5.40;95.00;;;;;;2060069;28;20043;-88
2022/02/23 02:04:22;;;;;;;6.38;1.15;;;5.50;95.00;;;;;;2068607;28;20424;-88
2022/02/23 02:05:22;;;;;;;6.35;1.25;;;5.40;95.00;;;;;;2078715;28;20034;-88
2022/02/23 02:06:23;;;;;;;4.72;1.23;;;5.40;95.00;;;;;;2079987;28;20049;-88
2022/02/23 02:07:23;;;;;;;5.22;0.93;;;5.40;95.00;;;;;;2067971;28;20035;-88
2022/02/23 02:08:24;;;;;;;5.85;1.10;;;5.40;95.00;;;;;;2044046;28;20074;-88
2022/02/23 02:09:25;;;;;;;4.95;1.00;;;5.40;95.00;;;;;;2091961;28;20067;-88
2022/02/23 02:10:25;;;;;;;5.53;1.48;;;5.40;95.10;;;;;;2095769;28;20041;-88
2022/02/23 02:11:26;;;;;;;6.05;1.20;;;5.40;95.00;;;;;;2089451;28;20029;-88
2022/02/23 02:12:27;;;;;;;5.18;1.02;;;5.40;95.00;;;;;;2088140;28;20098;-88
2022/02/23 02:13:28;;;;;;;7.28;1.30;;;5.40;95.00;;;;;;2057238;28;20460;-88
2022/02/23 02:14:28;;;;;;;4.53;0.90;;;5.40;95.00;;;;;;2045603;28;20045;-88
2022/02/23 02:15:29;;;;;;;6.78;1.30;;;5.40;95.00;;;;;;2087476;28;20048;-88
2022/02/23 02:16:29;;;;;;;7.68;1.25;;;5.40;95.10;;;;;;2058644;28;20035;-88
2022/02/23 02:17:30;;;;;;;3.65;0.80;;;5.40;95.10;;;;;;2084786;28;20564;-88
2022/02/23 02:18:31;;;;;;;7.63;1.13;;;5.40;95.10;;;;;;2075716;28;20476;-88
2022/02/23 02:19:31;;;;;;;5.97;1.02;;;5.40;95.10;;;;;;2081051;28;20039;-88
2022/02/23 02:20:32;;;;;;;4.90;1.20;;;5.30;95.00;;;;;;2062901;28;20141;-88
2022/02/23 02:22:04;;;;;;;5.18;0.95;;;5.30;95.10;;;;;;2064851;28;20076;-88
2022/02/23 02:23:05;;;;;;;6.68;1.65;;;5.30;95.10;;;;;;2065283;28;20042;-88
2022/02/23 02:24:06;;;;;;;7.25;1.42;;;5.30;95.10;;;;;;2062357;28;20097;-88
2022/02/23 02:25:07;;;;;;;5.57;1.40;;;5.30;95.10;;;;;;2051547;28;20123;-88
2022/02/23 02:26:08;;;;;;;4.90;0.93;;;5.30;95.10;;;;;;2059218;28;20126;-88
2022/02/23 02:27:13;;;;;;;7.03;1.30;;;5.30;95.10;;;;;;2071055;28;20049;-88
2022/02/23 02:28:14;;;;;;;4.88;1.08;;;5.30;95.10;;;;;;2059866;28;20043;-88
2022/02/23 02:29:15;;;;;;;4.90;1.25;;;5.30;95.10;;;;;;2078853;28;20045;-88
2022/02/23 02:30:16;;;;;;;6.30;1.15;;;5.30;95.10;;;;;;2082490;28;20454;-88
2022/02/23 02:31:17;;;;;;;7.18;1.38;;;5.30;95.10;;;;;;2056312;28;20482;-88
2022/02/23 02:32:17;;;;;;;3.45;0.93;;;5.30;95.10;;;;;;2066081;28;20044;-88
2022/02/23 02:33:18;;;;;;;6.07;1.23;;;5.20;95.10;;;;;;2063191;28;20071;-87
2022/02/23 02:34:20;;;;;;;5.65;1.20;;;5.30;95.10;;;;;;2071488;28;20106;-88
2022/02/23 02:35:21;;;;;;;5.10;1.13;;;5.20;95.10;;;;;;2076730;28;20051;-88
2022/02/23 02:36:22;;;;;;;5.93;1.45;;;5.20;95.10;;;;;;2068298;28;20046;-89
2022/02/23 02:37:22;;;;;;;4.38;0.90;;;5.20;95.40;;;;;;2065346;28;20089;-88
2022/02/23 02:38:23;;;;;;;9.00;1.13;;;5.20;95.20;;;;;;2061016;28;20109;-88
2022/02/23 02:39:25;;;;;;;6.15;1.35;;;5.20;95.20;;;;;;2075966;28;20053;-88
2022/02/23 02:40:26;;;;;;;4.13;1.00;;;5.20;95.20;;;;;;2081450;28;20032;-89
2022/02/23 02:41:26;;;;;;;4.40;1.02;;;5.20;95.20;;;;;;2067821;28;20530;-88
2022/02/23 02:42:27;;;;;;;7.00;1.20;;;5.20;95.20;;;;;;2070558;28;20390;-88
2022/02/23 02:43:28;;;;;;;4.78;1.05;;;5.20;95.30;;;;;;2059458;28;20047;-88
2022/02/23 02:44:29;;;;;;;5.03;1.10;;;5.10;95.30;;;;;;2061747;28;20043;-88
2022/02/23 02:45:30;;;;;;;7.00;1.10;;;5.10;95.30;;;;;;2062727;28;20490;-88
2022/02/23 02:46:31;;;;;;;5.15;1.10;;;5.10;95.30;;;;;;2067212;28;20065;-88
2022/02/23 02:47:31;;;;;;;6.95;1.83;;;5.10;95.30;;;;;;2066882;28;20070;-87
2022/02/23 02:48:32;;;;;;;7.07;1.13;;;5.10;95.30;;;;;;2065298;28;20493;-89
2022/02/23 02:49:32;;;;;;;6.38;1.45;;;5.10;95.30;;;;;;2063438;28;20050;-88
2022/02/23 02:50:33;;;;;;;4.15;0.90;;;5.10;95.30;;;;;;2062440;28;20307;-88
2022/02/23 02:51:34;;;;;;;7.22;1.60;;;5.00;95.30;;;;;;2065770;28;20034;-88
2022/02/23 02:52:35;;;;;;;6.85;1.10;;;5.00;95.30;;;;;;2077956;28;20060;-88
2022/02/23 02:53:35;;;;;;;7.97;1.15;;;5.00;95.30;;;;;;2063227;28;20089;-88
2022/02/23 02:54:36;;;;;;;5.43;1.10;;;5.00;95.30;;;;;;2062775;28;20035;-88
2022/02/23 02:55:37;;;;;;;5.45;1.27;;;5.00;95.40;;;;;;2061428;28;20500;-88
2022/02/23 02:56:39;;;;;;;6.35;1.08;;;5.00;95.40;;;;;;2058208;28;20035;-87
2022/02/23 02:57:40;;;;;;;6.20;0.85;;;4.90;95.40;;;;;;2078628;28;20408;-89
2022/02/23 02:58:40;;;;;;;6.82;1.10;;;5.00;95.40;;;;;;2080565;28;20042;-88
2022/02/23 02:59:41;;;;;;;5.57;1.30;;;4.90;95.40;;;;;;2095297;28;20518;-88
2022/02/23 03:00:42;;;;;;;6.05;0.88;;;4.90;95.40;;;;;;2072317;28;20127;-88
2022/02/23 03:01:43;;;;;;;4.15;1.20;;;4.90;95.40;;;;;;2063490;28;20035;-88
2022/02/23 03:02:44;;;;;;;6.22;1.23;;;4.90;95.40;;;;;;2064367;28;20045;-88
2022/02/23 03:03:44;;;;;;;4.93;1.15;;;4.90;95.40;;;;;;2075974;28;20057;-88
2022/02/23 03:04:45;;;;;;;4.32;1.05;;;4.90;95.40;;;;;;2066015;28;20085;-88
2022/02/23 03:05:47;;;;;;;8.55;1.35;;;4.80;95.40;;;;;;2062103;28;20496;-88
2022/02/23 03:06:48;;;;;;;7.13;1.20;;;4.80;95.40;;;;;;2063935;28;20517;-88
2022/02/23 03:07:49;;;;;;;6.40;1.13;;;4.80;95.40;;;;;;2064621;28;20068;-89
2022/02/23 03:08:50;;;;;;;4.82;1.10;;;4.80;95.50;;;;;;2066246;28;20065;-88
2022/02/23 03:09:51;;;;;;;6.40;1.30;;;4.80;95.50;;;;;;2088153;28;20062;-88
2022/02/23 03:10:51;;;;;;;6.50;1.23;;;4.80;95.50;;;;;;2064157;28;20034;-88
2022/02/23 03:11:52;;;;;;;6.18;1.10;;;4.80;95.50;;;;;;2057633;28;20570;-88
2022/02/23 03:12:53;;;;;;;5.95;1.10;;;4.70;95.50;;;;;;2060517;28;20067;-88
2022/02/23 03:13:54;;;;;;;5.32;1.00;;;4.70;95.50;;;;;;2061902;28;20062;-88
2022/02/23 03:14:54;;;;;;;2.50;0.93;;;4.80;95.50;;;;;;2068380;28;20264;-88
2022/02/23 03:15:55;;;;;;;5.40;1.30;;;4.70;95.50;;;;;;2054534;28;20512;-88
2022/02/23 03:16:56;;;;;;;5.75;1.08;;;4.70;95.50;;;;;;2063101;28;20515;-87
2022/02/23 03:17:56;;;;;;;4.93;1.08;;;4.70;95.50;;;;;;2052674;28;20039;-87
2022/02/23 03:18:57;;;;;;;4.32;1.35;;;4.70;95.50;;;;;;2052721;28;20066;-87
2022/02/23 03:19:58;;;;;;;6.03;1.10;;;4.70;95.50;;;;;;2059711;28;20042;-88
2022/02/23 03:20:59;;;;;;;6.85;1.30;;;4.60;95.50;;;;;;2063457;28;20038;-88
2022/02/23 03:21:59;;;;;;;3.17;0.88;;;4.60;95.50;;;;;;2052567;28;20035;-88
2022/02/23 03:23:00;;;;;;;4.03;1.33;;;4.60;95.50;;;;;;2072583;28;20035;-88
2022/02/23 03:24:01;;;;;;;3.33;0.85;;;4.70;95.50;;;;;;2066037;28;20047;-89
2022/02/23 03:25:02;;;;;;;5.20;0.98;;;4.60;95.50;;;;;;2064497;28;20432;-88
2022/02/23 03:26:03;;;;;;;5.35;1.00;;;4.60;95.50;;;;;;2064714;28;20417;-88
2022/02/23 03:27:04;;;;;;;5.00;1.05;;;4.60;95.50;;;;;;2055304;28;20038;-88
2022/02/23 03:28:05;;;;;;;3.78;1.02;;;4.60;95.50;;;;;;2055638;28;20027;-88
2022/02/23 03:29:05;;;;;;;4.55;0.98;;;4.60;95.50;;;;;;2055373;28;20061;-88
2022/02/23 03:30:06;;;;;;;3.40;0.93;;;4.50;95.50;;;;;;2058285;28;20134;-88
2022/02/23 03:31:08;;;;;;;6.55;1.13;;;4.60;95.50;;;;;;2057391;28;20042;-88
2022/02/23 03:32:08;;;;;;;6.07;1.00;;;4.50;95.50;;;;;;2066431;28;20443;-88
2022/02/23 03:33:09;;;;;;;4.25;1.40;;;4.50;95.60;;;;;;2072616;28;20034;-88
2022/02/23 03:34:10;;;;;;;4.40;1.10;;;4.60;95.60;;;;;;2081583;28;20066;-88
2022/02/23 03:35:11;;;;;;;8.68;1.55;;;4.50;95.60;;;;;;2059620;28;20027;-88
2022/02/23 03:36:16;;;;;;;5.72;0.98;;;4.50;95.60;;;;;;2052882;28;20435;-88
2022/02/23 03:37:17;;;;;;;3.67;1.00;;;4.50;95.60;;;;;;2048728;28;20062;-89
2022/02/23 03:38:17;;;;;;;6.15;1.30;;;4.50;95.50;;;;;;2068976;28;20064;-88
2022/02/23 03:39:18;;;;;;;9.75;1.40;;;4.50;95.60;;;;;;2062620;28;20073;-89
2022/02/23 03:40:18;;;;;;;5.35;1.05;;;4.50;95.60;;;;;;2064210;28;20050;-88
2022/02/23 03:41:19;;;;;;;4.07;0.90;;;4.50;95.60;;;;;;2057498;28;20039;-88
2022/02/23 03:42:20;;;;;;;5.22;1.27;;;4.50;95.60;;;;;;2052780;28;20062;-87
2022/02/23 03:43:20;;;;;;;5.13;1.30;;;4.50;95.60;;;;;;2057228;28;20134;-88
2022/02/23 03:44:21;;;;;;;5.65;1.38;;;4.50;95.60;;;;;;2071128;28;20129;-88
2022/02/23 03:45:23;;;;;;;4.75;1.15;;;4.50;95.60;;;;;;2062985;28;20067;-88
2022/02/23 03:46:24;;;;;;;4.75;1.17;;;4.50;95.60;;;;;;2066892;28;20528;-88
2022/02/23 03:47:24;;;;;;;5.00;1.08;;;4.50;95.60;;;;;;2063523;28;20038;-88
2022/02/23 03:48:25;;;;;;;7.57;1.80;;;4.40;95.60;;;;;;2061646;28;20069;-88
2022/02/23 03:49:28;;;;;;;4.57;1.13;;;4.50;95.60;;;;;;2069150;28;20496;-88
2022/02/23 03:50:28;;;;;;;4.80;1.00;;;4.40;95.60;;;;;;2066761;28;20039;-88
2022/02/23 03:51:30;;;;;;;6.90;1.27;;;4.40;95.60;;;;;;2072892;28;20113;-88
2022/02/23 03:52:30;;;;;;;4.15;0.90;;;4.40;95.60;;;;;;2068188;28;20045;-88
2022/02/23 03:53:31;;;;;;;6.07;1.35;;;4.40;95.60;;;;;;2055959;28;20181;-88
2022/02/23 03:54:32;;;;;;;6.03;0.98;;;4.40;95.60;;;;;;2066904;28;20038;-88
2022/02/23 03:55:32;;;;;;;5.38;0.93;;;4.40;95.60;;;;;;2066125;28;20095;-87
2022/02/23 03:56:39;;;;;;;4.45;1.05;;;4.40;95.60;;;;;;2065322;28;20035;-88
2022/02/23 03:57:40;;;;;;;4.53;1.23;;;4.40;95.60;;;;;;2073914;28;20050;-88
2022/02/23 03:58:41;;;;;;;5.15;1.10;;;4.40;95.60;;;;;;2083572;28;20052;-88
2022/02/23 03:59:41;;;;;;;6.13;1.00;;;4.40;95.60;;;;;;2068676;28;20557;-88
2022/02/23 04:00:42;;;;;;;7.07;1.40;;;4.40;95.60;;;;;;2099857;28;20044;-88
2022/02/23 04:01:46;;;;;;;5.85;1.30;;;4.40;95.60;;;;;;2096327;28;20138;-88
2022/02/23 04:02:47;;;;;;;6.43;1.20;;;4.40;95.60;;;;;;2040551;28;20518;-88
2022/02/23 04:03:47;;;;;;;7.40;1.30;;;4.40;95.60;;;;;;2048086;28;20038;-88
2022/02/23 04:04:48;;;;;;;5.07;1.00;;;4.40;95.70;;;;;;2059603;28;20065;-87
2022/02/23 04:05:48;;;;;;;7.20;1.40;;;4.40;95.70;;;;;;2049846;28;20039;-88
2022/02/23 04:06:50;;;;;;;7.55;1.13;;;4.40;95.70;;;;;;2044840;28;20106;-87
2022/02/23 04:07:51;;;;;;;6.03;0.90;;;4.40;95.70;;;;;;2054904;28;20035;-88
2022/02/23 04:08:52;;;;;;;4.95;1.20;;;4.40;95.90;;;;;;2065122;28;20115;-88
2022/02/23 04:09:53;;;;;;;6.28;1.00;;;4.40;95.60;;;;;;2058921;28;20070;-88
2022/02/23 04:10:54;;;;;;;6.68;1.00;;;4.40;95.60;;;;;;2054305;28;20568;-88
2022/02/23 04:11:54;;;;;;;6.32;1.48;;;4.30;95.60;;;;;;2065418;28;20046;-88
2022/02/23 04:12:55;;;;;;;6.20;1.30;;;4.30;95.60;;;;;;2092167;28;20028;-88
2022/02/23 04:13:56;;;;;;;6.22;1.23;;;4.40;95.70;;;;;;2086613;28;20391;-88
2022/02/23 04:14:56;;;;;;;3.90;1.25;;;4.30;95.60;;;;;;2091581;28;20116;-88
2022/02/23 04:15:57;;;;;;;4.95;1.08;;;4.30;95.60;;;;;;2103568;28;20051;-88
2022/02/23 04:16:58;;;;;;;6.38;1.40;;;4.30;95.70;;;;;;2090562;28;20506;-88
2022/02/23 04:17:59;;;;;;;4.68;1.20;;;4.30;95.70;;;;;;2095566;28;20075;-88
2022/02/23 04:18:59;;;;;;;4.57;1.08;;;4.30;95.70;;;;;;2103098;28;20494;-88
2022/02/23 04:20:00;;;;;;;5.85;1.20;;;4.30;95.70;;;;;;2093263;28;20075;-88
2022/02/23 04:21:01;;;;;;;4.38;1.15;;;4.30;95.70;;;;;;2093198;28;20036;-88
2022/02/23 04:22:03;;;;;;;5.78;1.17;;;4.30;95.70;;;;;;2093622;28;20074;-88
2022/02/23 04:23:04;;;;;;;5.65;1.05;;;4.30;95.70;;;;;;2090324;28;20099;-88
2022/02/23 04:24:05;;;;;;;5.35;1.02;;;4.30;95.70;;;;;;2097069;28;20032;-88
2022/02/23 04:25:06;;;;;;;6.82;0.90;;;4.30;95.70;;;;;;2092532;28;20071;-88
2022/02/23 04:26:06;;;;;;;5.88;1.00;;;4.30;95.70;;;;;;2092384;28;20112;-88
2022/02/23 04:27:08;;;;;;;5.10;1.17;;;4.30;95.70;;;;;;2101428;28;20578;-88
2022/02/23 04:28:08;;;;;;;4.47;0.93;;;4.30;95.70;;;;;;2094344;28;20040;-88
2022/02/23 04:29:09;;;;;;;4.78;1.00;;;4.20;95.70;;;;;;2098425;28;20517;-88
2022/02/23 04:30:11;;;;;;;3.50;1.20;;;4.30;95.70;;;;;;2090755;28;20064;-88
2022/02/23 04:31:13;;;;;;;6.80;1.00;;;4.20;95.70;;;;;;2093543;28;20039;-88
2022/02/23 04:32:14;;;;;;;3.00;1.02;;;4.20;95.70;;;;;;2094625;28;20097;-88
2022/02/23 04:33:15;;;;;;;4.65;1.20;;;4.20;95.70;;;;;;2086820;28;20029;-88
2022/02/23 04:34:15;;;;;;;5.70;1.17;;;4.20;95.70;;;;;;2082750;28;20495;-88
2022/02/23 04:35:16;;;;;;;5.70;1.23;;;4.20;95.70;;;;;;2105554;28;20109;-88
2022/02/23 04:36:18;;;;;;;5.10;1.23;;;4.20;95.80;;;;;;2103139;28;20070;-88
2022/02/23 04:37:19;;;;;;;5.70;1.17;;;4.20;95.80;;;;;;2103490;28;20040;-88
2022/02/23 04:38:19;;;;;;;6.38;1.20;;;4.20;95.80;;;;;;2100661;28;20376;-88
2022/02/23 04:39:20;;;;;;;6.53;1.27;;;4.10;95.80;;;;;;2092101;28;20044;-88
2022/02/23 04:40:20;;;;;;;6.53;1.40;;;4.20;95.80;;;;;;2089960;28;20598;-88
2022/02/23 04:41:21;;;;;;;4.63;1.25;;;4.20;95.90;;;;;;2090219;28;20044;-88
2022/02/23 04:42:22;;;;;;;7.13;1.00;;;4.10;95.90;;;;;;2078537;28;20137;-87
2022/02/23 04:43:22;;;;;;;4.55;1.00;;;4.10;95.90;;;;;;2073398;28;20116;-87
2022/02/23 04:44:23;;;;;;;4.45;1.00;;;4.10;95.90;;;;;;2096039;28;20033;-88
2022/02/23 04:45:23;;;;;;;4.35;1.00;;;4.10;95.90;;;;;;2104089;28;20036;-88
2022/02/23 04:46:24;;;;;;;4.38;1.00;;;4.10;95.90;;;;;;2094052;28;20064;-88
2022/02/23 04:47:25;;;;;;;4.70;1.15;;;4.10;95.90;;;;;;2096588;28;20041;-88
2022/02/23 04:48:25;;;;;;;5.57;1.33;;;4.10;95.90;;;;;;2096832;28;20495;-88
2022/02/23 04:49:26;;;;;;;3.33;1.13;;;4.10;95.90;;;;;;2101187;28;20048;-88
2022/02/23 04:50:27;;;;;;;5.00;1.15;;;4.10;96.00;;;;;;2084877;28;20029;-88
2022/02/23 04:51:29;;;;;;;5.95;1.17;;;4.10;96.00;;;;;;2097021;28;20095;-89
2022/02/23 04:52:30;;;;;;;4.95;0.90;;;4.10;96.00;;;;;;2094154;28;20037;-88
2022/02/23 04:53:31;;;;;;;5.78;1.00;;;4.10;96.00;;;;;;2093729;28;20036;-88
2022/02/23 04:54:34;;;;;;;2.95;0.90;;;4.00;96.00;;;;;;2102120;28;20032;-89
2022/02/23 04:55:35;;;;;;;4.72;1.05;;;4.00;96.00;;;;;;2099291;28;20048;-88
2022/02/23 04:56:36;;;;;;;5.18;1.17;;;4.00;96.00;;;;;;2089954;28;20577;-88
2022/02/23 04:57:37;;;;;;;7.22;1.13;;;4.00;96.00;;;;;;2091934;28;20116;-88
2022/02/23 04:58:37;;;;;;;5.10;1.10;;;4.00;96.10;;;;;;2081747;28;21184;-88
2022/02/23 04:59:38;;;;;;;5.95;1.10;;;4.00;96.00;;;;;;2090342;28;20033;-88
2022/02/23 05:00:41;;;;;;;4.63;0.80;;;4.00;96.00;;;;;;2100925;28;20040;-88
2022/02/23 05:01:42;;;;;;;4.85;1.00;;;4.00;96.00;;;;;;2094695;28;20025;-88
2022/02/23 05:02:42;;;;;;;4.90;1.00;;;4.00;96.00;;;;;;2099356;28;20036;-88
2022/02/23 05:03:44;;;;;;;5.15;1.10;;;4.00;96.00;;;;;;2099819;28;20056;-88
2022/02/23 05:04:44;;;;;;;5.45;1.20;;;4.00;96.10;;;;;;2103713;28;20036;-88
2022/02/23 05:05:45;;;;;;;4.28;1.08;;;4.00;96.10;;;;;;2099392;28;20039;-88
2022/02/23 05:06:46;;;;;;;5.28;1.40;;;4.00;96.10;;;;;;2107098;28;20482;-88
2022/02/23 05:07:46;;;;;;;5.00;1.00;;;3.90;96.00;;;;;;2094571;28;20151;-88
2022/02/23 05:08:47;;;;;;;6.53;1.50;;;3.90;96.00;;;;;;2103439;28;20044;-88
2022/02/23 05:09:49;;;;;;;7.70;1.42;;;3.90;96.00;;;;;;2090362;28;20529;-88
2022/02/23 05:10:49;;;;;;;6.70;1.20;;;3.90;96.00;;;;;;2095964;28;20036;-88
2022/02/23 05:11:50;;;;;;;3.38;1.00;;;3.90;96.00;;;;;;2088639;28;20060;-88
2022/02/23 05:12:51;;;;;;;4.85;1.23;;;3.90;96.00;;;;;;2060944;28;20622;-88
2022/02/23 05:13:52;;;;;;;4.05;0.93;;;3.90;96.00;;;;;;2071248;28;20621;-88
2022/02/23 05:14:53;;;;;;;4.22;1.10;;;3.90;96.00;;;;;;2087581;28;20052;-88
2022/02/23 05:15:56;;;;;;;5.03;1.33;;;3.90;96.10;;;;;;2094132;28;20132;-88
2022/02/23 05:16:57;;;;;;;4.80;1.10;;;3.80;96.00;;;;;;2087270;28;20087;-88
2022/02/23 05:17:57;;;;;;;5.18;1.05;;;3.90;96.10;;;;;;2070997;28;20085;-88
2022/02/23 05:18:58;;;;;;;4.55;1.25;;;3.80;96.10;;;;;;2088488;28;20038;-88
2022/02/23 05:19:59;;;;;;;6.15;1.30;;;3.80;96.10;;;;;;2059012;28;20034;-88
2022/02/23 05:21:01;;;;;;;3.35;1.13;;;3.80;96.10;;;;;;2093161;28;20103;-88
2022/02/23 05:22:02;;;;;;;5.80;1.27;;;3.80;96.10;;;;;;2066378;28;20066;-87